createdAt,value
2023-02-14T00:01:38.445Z,94.07
2023-02-14T00:06:41.755Z,94.44
2023-02-14T00:11:45.282Z,94.63
2023-02-14T00:16:48.012Z,94.57
2023-02-14T00:21:51.854Z,94.87
2023-02-14T00:26:55.683Z,95.47
2023-02-14T00:32:01.481Z,95.61
2023-02-14T00:37:05.516Z,95.82
2023-02-14T00:42:08.067Z,95.89
2023-02-14T00:47:10.638Z,96.19
2023-02-14T00:52:14.195Z,96.34
2023-02-14T00:57:20.431Z,96.29
2023-02-14T01:02:23.003Z,96.69
2023-02-14T01:07:25.763Z,97.05
2023-02-14T01:12:28.444Z,97.48
2023-02-14T01:17:31.176Z,97.86
2023-02-14T01:22:37.653Z,97.92
2023-02-14T01:27:40.597Z,98.55
2023-02-14T01:32:43.937Z,98.84
2023-02-14T01:37:46.504Z,99.07
2023-02-14T01:42:49.106Z,99.42
2023-02-14T01:47:54.590Z,99.36
2023-02-14T01:53:07.726Z,99.59
2023-02-14T01:58:23.026Z,99.63
2023-02-14T02:03:49.106Z,99.90
2023-02-14T02:09:02.922Z,99.99
2023-02-14T02:14:16.022Z,99.99
2023-02-14T02:19:21.635Z,100.00
2023-02-14T02:24:36.862Z,100.00
2023-02-14T02:30:11.442Z,100.00
2023-02-14T02:35:19.974Z,100.00
2023-02-14T02:40:44.988Z,100.00
2023-02-14T02:46:14.594Z,100.00
2023-02-14T02:51:45.525Z,100.00
2023-02-14T02:56:56.850Z,100.00
2023-02-14T03:02:20.964Z,100.00
2023-02-14T03:07:45.245Z,100.00
2023-02-14T03:13:03.754Z,100.00
2023-02-14T03:18:51.118Z,100.00
2023-02-14T03:23:56.391Z,100.00
2023-02-14T03:29:09.357Z,100.00
2023-02-14T03:34:32.121Z,100.00
2023-02-14T03:40:06.789Z,100.00
2023-02-14T03:45:13.713Z,100.00
2023-02-14T03:50:19.857Z,100.00
2023-02-14T03:55:37.497Z,100.00
2023-02-14T04:00:42.131Z,100.00
2023-02-14T04:05:52.102Z,100.00
2023-02-14T04:10:58.104Z,100.00
2023-02-14T04:16:01.040Z,100.00
2023-02-14T04:21:04.546Z,100.00
2023-02-14T04:26:07.445Z,100.00
2023-02-14T04:31:12.396Z,100.00
2023-02-14T04:36:15.059Z,100.00
2023-02-14T04:41:17.660Z,100.00
2023-02-14T04:46:20.293Z,100.00
2023-02-14T04:51:22.915Z,100.00
2023-02-14T04:56:27.048Z,100.00
2023-02-14T05:01:29.623Z,100.00
2023-02-14T05:06:32.931Z,100.00
2023-02-14T05:11:35.515Z,100.00
2023-02-14T05:16:38.731Z,100.00
2023-02-14T05:21:41.361Z,100.00
2023-02-14T05:26:43.942Z,100.00
2023-02-14T05:31:46.627Z,100.00
2023-02-14T05:36:49.291Z,100.00
2023-02-14T05:41:51.867Z,100.00
2023-02-14T05:46:55.094Z,100.00
2023-02-14T05:51:57.642Z,100.00
2023-02-14T05:57:00.187Z,100.00
2023-02-14T06:02:02.888Z,100.00
2023-02-14T06:07:06.025Z,100.00
2023-02-14T06:12:08.628Z,100.00
2023-02-14T06:17:11.642Z,100.00
2023-02-14T06:22:14.374Z,100.00
2023-02-14T06:27:17.229Z,100.00
2023-02-14T06:32:19.983Z,100.00
2023-02-14T06:37:22.795Z,100.00
2023-02-14T06:42:25.412Z,100.00
2023-02-14T06:47:28.584Z,100.00
2023-02-14T06:52:32.618Z,100.00
2023-02-14T06:57:35.212Z,100.00
2023-02-14T07:02:37.817Z,100.00
2023-02-14T07:07:40.592Z,100.00
2023-02-14T07:12:43.306Z,100.00
2023-02-14T07:17:45.936Z,100.00
2023-02-14T07:22:48.612Z,99.91
2023-02-14T07:27:51.199Z,99.79
2023-02-14T07:32:53.889Z,99.92
2023-02-14T07:37:56.457Z,99.82
2023-02-14T07:43:00.702Z,99.90
2023-02-14T07:48:04.211Z,99.19
2023-02-14T07:53:08.482Z,99.53
2023-02-14T07:58:11.088Z,99.01
2023-02-14T08:03:14.127Z,98.76
2023-02-14T08:08:16.727Z,98.07
2023-02-14T08:13:21.757Z,97.71
2023-02-14T08:18:24.443Z,97.86
2023-02-14T08:23:27.251Z,97.58
2023-02-14T08:28:29.886Z,97.63
2023-02-14T08:33:32.759Z,96.98
2023-02-14T08:38:36.459Z,97.25
2023-02-14T08:43:39.097Z,97.55
2023-02-14T08:48:41.653Z,96.94
2023-02-14T08:53:45.137Z,96.58
2023-02-14T08:58:48.195Z,96.64
2023-02-14T09:03:50.898Z,96.41
2023-02-14T09:08:54.979Z,96.01
2023-02-14T09:13:57.932Z,96.10
2023-02-14T09:19:00.693Z,95.81
2023-02-14T09:24:03.666Z,94.84
2023-02-14T09:29:06.656Z,94.61
2023-02-14T09:34:09.426Z,94.44
2023-02-14T09:39:12.353Z,94.31
2023-02-14T09:44:23.571Z,94.34
2023-02-14T09:49:36.023Z,93.99
2023-02-14T09:54:42.475Z,93.34
2023-02-14T09:59:54.999Z,92.37
2023-02-14T10:05:13.312Z,91.66
2023-02-14T10:10:39.466Z,91.30
2023-02-14T10:15:50.967Z,91.32
2023-02-14T10:20:59.444Z,91.02
2023-02-14T10:26:04.499Z,90.16
2023-02-14T10:31:25.493Z,89.21
2023-02-14T10:36:31.534Z,88.92
2023-02-14T10:41:39.901Z,88.65
2023-02-14T10:47:19.825Z,88.34
2023-02-14T10:52:34.268Z,87.64
2023-02-14T10:57:48.132Z,86.75
2023-02-14T11:02:56.471Z,85.61
2023-02-14T11:07:59.855Z,85.93
2023-02-14T11:13:02.604Z,84.93
2023-02-14T11:18:22.889Z,83.17
2023-02-14T11:23:25.924Z,81.78
2023-02-14T11:28:28.563Z,83.35
2023-02-14T11:33:50.690Z,84.10
2023-02-14T11:39:22.244Z,82.36
2023-02-14T11:44:28.351Z,81.36
2023-02-14T11:49:34.677Z,80.46
2023-02-14T11:54:41.729Z,80.61
2023-02-14T11:59:52.586Z,82.19
2023-02-14T12:04:59.773Z,82.40
2023-02-14T12:10:15.684Z,81.85
2023-02-14T12:15:26.790Z,81.88
2023-02-14T12:21:01.566Z,80.38
2023-02-14T12:26:22.290Z,80.06
2023-02-14T12:31:26.876Z,81.21
2023-02-14T12:36:46.390Z,81.85
2023-02-14T12:42:21.543Z,81.46
2023-02-14T12:47:42.653Z,81.69
2023-02-14T12:52:45.190Z,82.15
2023-02-14T12:58:05.624Z,82.63
2023-02-14T13:03:08.530Z,82.14
2023-02-14T13:08:43.937Z,82.52
2023-02-14T13:14:20.587Z,82.10
2023-02-14T13:19:45.087Z,81.38
2023-02-14T13:24:51.982Z,81.59
2023-02-14T13:29:59.900Z,81.69
2023-02-14T13:35:15.231Z,81.58
2023-02-14T13:40:23.895Z,81.52
2023-02-14T13:45:29.499Z,80.47
2023-02-14T13:50:39.179Z,79.21
2023-02-14T13:55:47.420Z,79.27
2023-02-14T14:00:56.248Z,79.38
2023-02-14T14:06:05.327Z,79.51
2023-02-14T14:11:34.149Z,79.34
2023-02-14T14:16:38.222Z,78.48
2023-02-14T14:22:00.129Z,79.17
2023-02-14T14:27:04.276Z,78.44
2023-02-14T14:32:12.170Z,77.03
2023-02-14T14:37:20.706Z,76.84
2023-02-14T14:42:27.799Z,77.36
2023-02-14T14:47:46.768Z,77.46
2023-02-14T14:52:54.245Z,78.24
2023-02-14T14:58:00.042Z,79.12
2023-02-14T15:03:14.867Z,79.61
2023-02-14T15:08:22.803Z,79.84
2023-02-14T15:13:50.953Z,80.08
2023-02-14T15:18:59.103Z,80.47
2023-02-14T15:24:03.204Z,80.88
2023-02-14T15:29:07.363Z,81.23
2023-02-14T15:34:10.496Z,81.74
2023-02-14T15:39:19.497Z,82.37
2023-02-14T15:44:24.272Z,83.21
2023-02-14T15:49:46.492Z,83.73
2023-02-14T15:54:49.083Z,84.36
2023-02-14T15:59:52.173Z,84.70
2023-02-14T16:05:01.662Z,84.82
2023-02-14T16:10:20.309Z,85.29
2023-02-14T16:15:25.552Z,85.79
2023-02-14T16:20:30.255Z,85.63
2023-02-14T16:25:32.882Z,85.77
2023-02-14T16:30:36.805Z,86.22
2023-02-14T16:35:39.931Z,86.65
2023-02-14T16:40:45.075Z,86.68
2023-02-14T16:45:48.155Z,86.75
2023-02-14T16:50:51.001Z,87.08
2023-02-14T16:55:55.927Z,87.53
2023-02-14T17:00:59.225Z,87.78
2023-02-14T17:06:02.896Z,88.08
2023-02-14T17:11:05.987Z,87.89
2023-02-14T17:16:11.891Z,88.04
2023-02-14T17:21:16.624Z,88.26
2023-02-14T17:26:20.083Z,88.29
2023-02-14T17:31:22.761Z,88.68
2023-02-14T17:36:25.402Z,89.29
2023-02-14T17:41:29.280Z,89.70
2023-02-14T17:46:33.596Z,90.14
2023-02-14T17:51:36.269Z,90.45
2023-02-14T17:56:38.884Z,90.98
2023-02-14T18:01:41.740Z,91.36
2023-02-14T18:06:44.384Z,91.20
2023-02-14T18:11:47.468Z,91.19
2023-02-14T18:16:51.060Z,91.96
2023-02-14T18:21:53.729Z,92.27
2023-02-14T18:26:56.488Z,92.48
2023-02-14T18:31:59.142Z,92.58
2023-02-14T18:37:02.838Z,92.90
2023-02-14T18:42:05.889Z,92.91
2023-02-14T18:47:08.509Z,93.04
2023-02-14T18:52:11.351Z,93.16
2023-02-14T18:57:13.940Z,93.23
2023-02-14T19:02:16.694Z,93.28
2023-02-14T19:07:19.511Z,93.51
2023-02-14T19:12:24.260Z,93.45
2023-02-14T19:17:27.477Z,93.31
2023-02-14T19:22:30.046Z,93.36
2023-02-14T19:27:33.988Z,93.59
2023-02-14T19:32:36.558Z,93.93
2023-02-14T19:37:39.179Z,94.12
2023-02-14T19:42:41.775Z,94.20
2023-02-14T19:47:47.312Z,94.22
2023-02-14T19:52:50.864Z,94.09
2023-02-14T19:57:54.208Z,94.57
2023-02-14T20:03:00.779Z,95.02
2023-02-14T20:08:03.588Z,94.98
2023-02-14T20:13:06.196Z,94.73
2023-02-14T20:18:10.558Z,95.29
2023-02-14T20:23:14.139Z,94.88
2023-02-14T20:28:16.776Z,94.93
2023-02-14T20:33:19.644Z,94.76
2023-02-14T20:38:22.621Z,94.57
2023-02-14T20:43:25.241Z,94.61
2023-02-14T20:48:29.331Z,94.62
2023-02-14T20:53:33.198Z,94.46
2023-02-14T20:58:37.648Z,94.27
2023-02-14T21:03:43.340Z,94.38
2023-02-14T21:08:47.061Z,95.17
2023-02-14T21:13:53.893Z,95.41
2023-02-14T21:18:59.336Z,95.33
2023-02-14T21:24:11.791Z,95.26
2023-02-14T21:29:15.619Z,95.29
2023-02-14T21:34:18.277Z,95.41
2023-02-14T21:39:25.490Z,95.40
2023-02-14T21:44:44.159Z,95.23
2023-02-14T21:50:03.138Z,94.86
2023-02-14T21:55:06.200Z,94.52
2023-02-14T22:00:09.322Z,94.52
2023-02-14T22:05:12.325Z,94.88
2023-02-14T22:10:17.989Z,94.79
2023-02-14T22:15:20.708Z,94.85
2023-02-14T22:20:28.676Z,94.82
2023-02-14T22:25:31.512Z,94.43
2023-02-14T22:30:34.381Z,94.39
2023-02-14T22:35:36.939Z,94.24
2023-02-14T22:40:42.136Z,93.91
2023-02-14T22:45:44.839Z,93.94
2023-02-14T22:50:47.477Z,94.40
2023-02-14T22:55:50.118Z,94.07
2023-02-14T23:00:52.703Z,93.99
2023-02-14T23:05:59.237Z,94.49
2023-02-14T23:11:19.932Z,94.14
2023-02-14T23:16:39.754Z,93.92
2023-02-14T23:21:58.240Z,94.07
2023-02-14T23:27:00.997Z,93.81
2023-02-14T23:32:05.420Z,93.80
2023-02-14T23:37:09.948Z,93.86
2023-02-14T23:42:14.759Z,93.78
2023-02-14T23:47:20.618Z,93.83
2023-02-14T23:52:23.164Z,94.24
2023-02-14T23:57:25.816Z,94.35
